Time;durP1;ratioP1;P1;durP2;ratioP2;P2;SDS_P1;SDS_P2;PMS_P1;PMS_P2;Temp;Humidity;BMP_temperature;BMP_pressure;BME280_temperature;BME280_humidity;BME280_pressure;Samples;Min_cycle;Max_cycle;Signal;HPM_P1;HPM_P2
2022/10/10 00:01:58;;;;;;;16.25;14.52;;;;;;;;;;4349864;33;20228;-89
2022/10/10 00:04:26;;;;;;;16.35;13.02;;;;;;;;;;4349693;33;20239;-89
2022/10/10 00:06:55;;;;;;;13.88;12.32;;;;;;;;;;4349302;33;20266;-89
2022/10/10 00:09:21;;;;;;;12.82;11.02;;;;;;;;;;4349619;33;20793;-89
2022/10/10 00:11:48;;;;;;;17.52;12.45;;;;;;;;;;4349698;33;20244;-88
2022/10/10 00:14:15;;;;;;;15.35;13.07;;;;;;;;;;4349871;33;20227;-88
2022/10/10 00:16:42;;;;;;;14.70;12.57;;;;;;;;;;4349600;33;20294;-87
2022/10/10 00:19:09;;;;;;;14.30;12.80;;;;;;;;;;4349787;33;20226;-88
2022/10/10 00:21:37;;;;;;;18.40;12.45;;;;;;;;;;4349627;33;20219;-87
2022/10/10 00:24:04;;;;;;;21.73;13.53;;;;;;;;;;4349436;33;20306;-88
2022/10/10 00:26:31;;;;;;;14.63;13.13;;;;;;;;;;4349472;33;20265;-88
2022/10/10 00:28:57;;;;;;;15.43;13.82;;;;;;;;;;4349391;33;20219;-87
2022/10/10 00:31:24;;;;;;;17.73;13.67;;;;;;;;;;4349351;33;20252;-88
2022/10/10 00:33:51;;;;;;;17.42;15.55;;;;;;;;;;4349325;33;20210;-89
2022/10/10 00:36:19;;;;;;;19.90;14.60;;;;;;;;;;4349053;33;20219;-88
2022/10/10 00:38:48;;;;;;;14.50;13.00;;;;;;;;;;4349543;33;20640;-88
2022/10/10 00:41:14;;;;;;;17.50;14.53;;;;;;;;;;4349001;33;20207;-90
2022/10/10 00:43:41;;;;;;;16.00;14.30;;;;;;;;;;4349355;33;20226;-88
2022/10/10 00:46:08;;;;;;;16.43;14.13;;;;;;;;;;4349416;33;20226;-89
2022/10/10 00:48:39;;;;;;;18.53;15.27;;;;;;;;;;4349501;33;20225;-89
2022/10/10 00:51:09;;;;;;;21.37;15.07;;;;;;;;;;4349393;33;20206;-89
2022/10/10 00:53:39;;;;;;;18.07;14.07;;;;;;;;;;4350140;33;20233;-85
2022/10/10 00:56:09;;;;;;;27.10;14.33;;;;;;;;;;4352412;33;20211;-87
2022/10/10 00:58:37;;;;;;;16.00;14.30;;;;;;;;;;4352774;33;20199;-85
2022/10/10 01:01:04;;;;;;;18.83;14.70;;;;;;;;;;4353295;33;20241;-87
2022/10/10 01:03:30;;;;;;;26.37;15.87;;;;;;;;;;4352443;33;20274;-88
2022/10/10 01:06:00;;;;;;;18.80;15.30;;;;;;;;;;4350585;33;20294;-88
2022/10/10 01:08:27;;;;;;;20.83;16.90;;;;;;;;;;4350105;33;20518;-89
2022/10/10 01:11:17;;;;;;;17.30;15.17;;;;;;;;;;4350457;33;20293;-89
2022/10/10 01:13:52;;;;;;;17.75;15.40;;;;;;;;;;4349618;33;20253;-89
2022/10/10 01:16:27;;;;;;;19.02;15.35;;;;;;;;;;4348991;33;20206;-88
2022/10/10 01:19:08;;;;;;;20.80;16.43;;;;;;;;;;4349129;33;20293;-89
2022/10/10 01:21:43;;;;;;;22.55;16.02;;;;;;;;;;4348991;33;20207;-89
2022/10/10 01:24:30;;;;;;;18.67;15.83;;;;;;;;;;4349070;33;20301;-88
2022/10/10 01:27:10;;;;;;;19.33;15.80;;;;;;;;;;4348971;33;20214;-89
2022/10/10 01:29:43;;;;;;;17.48;14.73;;;;;;;;;;4348969;33;20309;-88
2022/10/10 01:32:15;;;;;;;17.37;15.50;;;;;;;;;;4348833;33;20223;-88
2022/10/10 01:34:52;;;;;;;21.00;15.27;;;;;;;;;;4348586;33;20226;-89
2022/10/10 01:37:21;;;;;;;18.52;14.18;;;;;;;;;;4348885;33;20244;-89
2022/10/10 01:39:55;;;;;;;17.43;14.10;;;;;;;;;;4348309;33;20231;-89
2022/10/10 01:42:27;;;;;;;19.73;15.13;;;;;;;;;;4348663;33;20217;-89
2022/10/10 01:44:55;;;;;;;15.23;13.23;;;;;;;;;;4348097;33;20672;-89
2022/10/10 01:47:23;;;;;;;17.93;14.83;;;;;;;;;;4348360;33;20214;-89
2022/10/10 01:49:55;;;;;;;17.57;15.37;;;;;;;;;;4348603;33;20289;-89
2022/10/10 01:52:34;;;;;;;20.62;14.77;;;;;;;;;;4348440;33;20237;-88
2022/10/10 01:55:17;;;;;;;15.70;14.07;;;;;;;;;;4348470;33;20222;-88
2022/10/10 01:57:54;;;;;;;21.48;15.90;;;;;;;;;;4348540;33;20225;-88
2022/10/10 02:00:22;;;;;;;21.92;14.98;;;;;;;;;;4348545;33;20268;-89
2022/10/10 02:02:54;;;;;;;21.90;15.23;;;;;;;;;;4348265;33;20223;-89
2022/10/10 02:05:27;;;;;;;16.40;14.70;;;;;;;;;;4348301;33;20308;-89
2022/10/10 02:07:57;;;;;;;21.30;14.50;;;;;;;;;;4348411;33;20304;-88
2022/10/10 02:10:28;;;;;;;17.43;15.53;;;;;;;;;;4348152;33;20578;-87
2022/10/10 02:12:57;;;;;;;25.17;15.47;;;;;;;;;;4348674;33;20256;-88
2022/10/10 02:15:28;;;;;;;18.37;15.02;;;;;;;;;;4348016;33;20253;-88
2022/10/10 02:17:57;;;;;;;17.90;16.00;;;;;;;;;;4348400;33;20269;-88
2022/10/10 02:20:27;;;;;;;20.30;16.75;;;;;;;;;;4348284;33;20248;-87
2022/10/10 02:22:55;;;;;;;21.30;15.80;;;;;;;;;;4347747;33;20215;-88
2022/10/10 02:25:26;;;;;;;21.40;16.05;;;;;;;;;;4348086;33;20234;-89
2022/10/10 02:28:03;;;;;;;20.60;16.70;;;;;;;;;;4347659;33;20316;-89
2022/10/10 02:30:37;;;;;;;21.73;15.90;;;;;;;;;;4348460;33;20659;-88
2022/10/10 02:33:05;;;;;;;20.23;16.10;;;;;;;;;;4348296;33;20245;-88
2022/10/10 02:35:35;;;;;;;20.88;15.07;;;;;;;;;;4348212;33;20227;-89
2022/10/10 02:38:05;;;;;;;24.87;17.37;;;;;;;;;;4347752;33;20241;-88
2022/10/10 02:40:34;;;;;;;19.63;16.23;;;;;;;;;;4347605;33;20583;-89
2022/10/10 02:43:04;;;;;;;17.30;15.50;;;;;;;;;;4347793;33;20238;-88
2022/10/10 02:45:33;;;;;;;19.00;17.00;;;;;;;;;;4348199;33;20235;-88
2022/10/10 02:48:00;;;;;;;24.53;15.60;;;;;;;;;;4348259;33;20211;-89
2022/10/10 02:50:28;;;;;;;18.33;16.37;;;;;;;;;;4347395;33;20246;-89
2022/10/10 02:52:55;;;;;;;19.67;15.53;;;;;;;;;;4347443;33;20242;-89
2022/10/10 02:55:22;;;;;;;18.30;15.53;;;;;;;;;;4348664;33;20265;-90
2022/10/10 02:57:49;;;;;;;20.17;14.20;;;;;;;;;;4348681;33;20263;-88
2022/10/10 03:00:19;;;;;;;18.03;14.23;;;;;;;;;;4354370;33;20234;-88
2022/10/10 03:02:47;;;;;;;18.97;14.57;;;;;;;;;;4357444;33;20211;-90
2022/10/10 03:05:14;;;;;;;16.77;15.00;;;;;;;;;;4356636;33;20273;-89
2022/10/10 03:07:41;;;;;;;15.93;14.10;;;;;;;;;;4352934;33;20266;-88
2022/10/10 03:10:12;;;;;;;24.07;15.47;;;;;;;;;;4352051;33;20244;-87
2022/10/10 03:12:40;;;;;;;17.73;14.87;;;;;;;;;;4338686;33;20293;-88
2022/10/10 03:15:07;;;;;;;22.63;16.07;;;;;;;;;;4335525;33;20265;-88
2022/10/10 03:17:34;;;;;;;18.30;15.88;;;;;;;;;;4347969;33;20232;-89
2022/10/10 03:20:02;;;;;;;18.47;16.30;;;;;;;;;;4347453;33;20234;-88
2022/10/10 03:22:29;;;;;;;22.70;17.43;;;;;;;;;;4347307;33;20210;-89
2022/10/10 03:24:56;;;;;;;19.37;17.23;;;;;;;;;;4348985;33;20231;-88
2022/10/10 03:27:23;;;;;;;27.00;17.07;;;;;;;;;;4349567;33;20281;-87
2022/10/10 03:29:49;;;;;;;24.83;17.33;;;;;;;;;;4349073;33;20226;-88
2022/10/10 03:32:16;;;;;;;26.37;17.47;;;;;;;;;;4347343;33;20722;-90
2022/10/10 03:34:43;;;;;;;23.80;18.37;;;;;;;;;;4347487;33;20757;-88
2022/10/10 03:37:12;;;;;;;26.70;18.80;;;;;;;;;;4346875;33;20581;-89
2022/10/10 03:39:38;;;;;;;28.07;19.37;;;;;;;;;;4347148;33;20690;-89
2022/10/10 03:42:05;;;;;;;24.17;19.27;;;;;;;;;;4346624;33;20270;-88
2022/10/10 03:44:32;;;;;;;25.50;18.93;;;;;;;;;;4347018;33;20299;-89
2022/10/10 03:46:59;;;;;;;20.70;18.10;;;;;;;;;;4347068;33;20266;-89
2022/10/10 03:49:25;;;;;;;27.20;20.60;;;;;;;;;;4346836;33;20230;-87
2022/10/10 03:51:53;;;;;;;20.70;18.27;;;;;;;;;;4346786;33;20738;-89
2022/10/10 03:54:21;;;;;;;27.43;23.00;;;;;;;;;;4346822;33;20230;-89
2022/10/10 03:56:48;;;;;;;34.50;23.30;;;;;;;;;;4347156;33;20277;-89
2022/10/10 03:59:15;;;;;;;26.37;22.27;;;;;;;;;;4347041;33;20239;-89
2022/10/10 04:01:41;;;;;;;29.23;20.63;;;;;;;;;;4347071;33;20223;-88
2022/10/10 04:04:08;;;;;;;26.27;21.40;;;;;;;;;;4346981;33;20664;-89
2022/10/10 04:06:35;;;;;;;32.83;23.47;;;;;;;;;;4347148;33;20231;-89
2022/10/10 04:09:03;;;;;;;33.23;23.43;;;;;;;;;;4349695;33;20249;-88
2022/10/10 04:11:31;;;;;;;28.70;21.13;;;;;;;;;;4349686;33;20215;-88
2022/10/10 04:14:01;;;;;;;33.03;22.73;;;;;;;;;;4349530;33;20249;-88
2022/10/10 04:16:27;;;;;;;39.47;22.57;;;;;;;;;;4349095;33;20206;-89
2022/10/10 04:18:54;;;;;;;24.30;21.50;;;;;;;;;;4349491;33;20277;-89
2022/10/10 04:21:21;;;;;;;29.50;23.30;;;;;;;;;;4348958;33;20612;-88
2022/10/10 04:23:48;;;;;;;30.60;21.40;;;;;;;;;;4349357;33;20221;-87
2022/10/10 04:26:15;;;;;;;34.47;23.63;;;;;;;;;;4349394;33;20265;-88
2022/10/10 04:28:43;;;;;;;34.37;21.70;;;;;;;;;;4348916;33;20707;-87
2022/10/10 04:31:12;;;;;;;26.77;20.63;;;;;;;;;;4349006;33;20236;-89
2022/10/10 04:33:39;;;;;;;38.33;23.20;;;;;;;;;;4348920;33;20210;-88
2022/10/10 04:36:06;;;;;;;32.00;22.00;;;;;;;;;;4349217;33;20249;-89
2022/10/10 04:38:33;;;;;;;28.23;20.90;;;;;;;;;;4349282;33;20266;-88
2022/10/10 04:41:00;;;;;;;32.00;21.33;;;;;;;;;;4348489;33;20242;-89
2022/10/10 04:43:27;;;;;;;25.80;20.83;;;;;;;;;;4348723;33;20229;-89
2022/10/10 04:45:57;;;;;;;25.30;20.50;;;;;;;;;;4348966;33;20360;-88
2022/10/10 04:48:24;;;;;;;34.37;24.27;;;;;;;;;;4348405;33;20277;-88
2022/10/10 04:50:54;;;;;;;32.37;22.73;;;;;;;;;;4348723;33;20223;-88
2022/10/10 04:53:21;;;;;;;37.53;24.43;;;;;;;;;;4348168;33;20211;-88
2022/10/10 04:55:48;;;;;;;32.33;24.50;;;;;;;;;;4348473;33;20762;-89
2022/10/10 04:58:15;;;;;;;42.50;25.60;;;;;;;;;;4348632;33;20662;-89
2022/10/10 05:00:42;;;;;;;35.50;22.00;;;;;;;;;;4348518;33;20227;-89
2022/10/10 05:03:11;;;;;;;35.13;23.00;;;;;;;;;;4348675;33;20582;-88
2022/10/10 05:05:39;;;;;;;45.80;31.07;;;;;;;;;;4348067;33;20313;-88
2022/10/10 05:08:06;;;;;;;62.17;42.80;;;;;;;;;;4348143;33;20218;-88
2022/10/10 05:10:35;;;;;;;61.10;39.27;;;;;;;;;;4347776;33;20299;-88
2022/10/10 05:13:03;;;;;;;49.13;31.70;;;;;;;;;;4347901;33;20237;-89
2022/10/10 05:15:30;;;;;;;34.27;25.13;;;;;;;;;;4348237;33;20231;-87
2022/10/10 05:17:56;;;;;;;36.13;24.33;;;;;;;;;;4348327;33;20246;-89
2022/10/10 05:20:25;;;;;;;49.30;24.33;;;;;;;;;;4347104;33;20235;-90
2022/10/10 05:22:51;;;;;;;37.13;21.43;;;;;;;;;;4347832;33;20219;-88
2022/10/10 05:25:18;;;;;;;32.43;21.43;;;;;;;;;;4348281;33;20301;-87
2022/10/10 05:27:45;;;;;;;38.43;21.93;;;;;;;;;;4348684;33;20214;-89
2022/10/10 05:30:13;;;;;;;27.10;20.13;;;;;;;;;;4348597;33;20242;-88
2022/10/10 05:32:39;;;;;;;32.53;22.40;;;;;;;;;;4348033;33;20608;-88
2022/10/10 05:35:07;;;;;;;30.03;20.57;;;;;;;;;;4347848;33;20242;-89
2022/10/10 05:37:36;;;;;;;28.80;20.33;;;;;;;;;;4348096;33;20356;-88
2022/10/10 05:40:03;;;;;;;34.97;19.37;;;;;;;;;;4347932;33;20235;-88
2022/10/10 05:42:30;;;;;;;21.50;18.10;;;;;;;;;;4347727;33;20223;-88
2022/10/10 05:44:57;;;;;;;26.40;19.70;;;;;;;;;;4347862;33;20227;-89
2022/10/10 05:47:24;;;;;;;19.83;16.90;;;;;;;;;;4348821;33;20218;-89
2022/10/10 05:49:51;;;;;;;22.87;15.63;;;;;;;;;;4347795;33;20248;-89
2022/10/10 05:52:18;;;;;;;22.43;18.90;;;;;;;;;;4347897;33;20652;-89
2022/10/10 05:54:46;;;;;;;35.33;17.70;;;;;;;;;;4348248;33;20344;-88
2022/10/10 05:57:13;;;;;;;23.87;16.23;;;;;;;;;;4348163;33;20327;-87
2022/10/10 05:59:40;;;;;;;21.95;19.48;;;;;;;;;;4348064;33;20234;-89
2022/10/10 06:02:07;;;;;;;31.93;20.73;;;;;;;;;;4347740;33;20219;-89
2022/10/10 06:04:33;;;;;;;31.63;21.13;;;;;;;;;;4347172;33;20592;-88
2022/10/10 06:07:00;;;;;;;36.17;23.30;;;;;;;;;;4347429;33;20237;-88
2022/10/10 06:09:27;;;;;;;42.37;22.30;;;;;;;;;;4347504;33;20260;-89
2022/10/10 06:11:55;;;;;;;35.60;24.73;;;;;;;;;;4347374;33;20215;-90
2022/10/10 06:14:22;;;;;;;35.67;25.37;;;;;;;;;;4347354;33;20245;-89
2022/10/10 06:16:49;;;;;;;33.37;23.40;;;;;;;;;;4347499;33;20224;-89
2022/10/10 06:19:16;;;;;;;36.77;23.70;;;;;;;;;;4347287;33;20319;-89
2022/10/10 06:21:43;;;;;;;47.13;26.30;;;;;;;;;;4347474;33;20644;-89
2022/10/10 06:24:10;;;;;;;39.03;28.57;;;;;;;;;;4347176;33;20636;-89
2022/10/10 06:26:37;;;;;;;43.13;28.90;;;;;;;;;;4346756;33;20567;-89
2022/10/10 06:29:06;;;;;;;38.07;27.33;;;;;;;;;;4346937;33;20242;-89
2022/10/10 06:31:33;;;;;;;41.47;26.97;;;;;;;;;;4346498;33;20206;-88
2022/10/10 06:34:00;;;;;;;37.33;26.77;;;;;;;;;;4346871;33;20356;-89
2022/10/10 06:36:26;;;;;;;30.90;25.13;;;;;;;;;;4346942;33;20642;-90
2022/10/10 06:38:53;;;;;;;37.77;25.10;;;;;;;;;;4347152;33;20574;-89
2022/10/10 06:41:20;;;;;;;39.70;23.10;;;;;;;;;;4347046;33;20518;-89
2022/10/10 06:43:48;;;;;;;36.13;23.23;;;;;;;;;;4347000;33;20215;-88
2022/10/10 06:46:16;;;;;;;30.20;24.97;;;;;;;;;;4346941;33;20207;-89
2022/10/10 06:48:43;;;;;;;32.57;23.20;;;;;;;;;;4346923;33;20232;-89
2022/10/10 06:51:14;;;;;;;33.57;23.33;;;;;;;;;;4346786;33;20230;-88
2022/10/10 06:53:41;;;;;;;42.90;24.30;;;;;;;;;;4348539;33;20219;-89
2022/10/10 06:56:14;;;;;;;36.73;25.37;;;;;;;;;;4346298;33;20282;-88
2022/10/10 06:58:41;;;;;;;34.93;26.20;;;;;;;;;;4347113;33;20261;-90
2022/10/10 07:01:09;;;;;;;31.77;22.53;;;;;;;;;;4346644;33;20214;-89
2022/10/10 07:03:37;;;;;;;31.90;22.27;;;;;;;;;;4347098;33;20273;-88
2022/10/10 07:06:04;;;;;;;34.38;22.73;;;;;;;;;;4346272;33;20241;-88
2022/10/10 07:08:31;;;;;;;34.65;24.45;;;;;;;;;;4348711;33;20237;-90
2022/10/10 07:10:58;;;;;;;28.60;21.90;;;;;;;;;;4348752;33;20222;-90
2022/10/10 07:13:25;;;;;;;25.27;22.25;;;;;;;;;;4349610;33;20222;-88
2022/10/10 07:15:52;;;;;;;32.10;20.65;;;;;;;;;;4349033;33;20238;-88
2022/10/10 07:18:19;;;;;;;25.50;20.05;;;;;;;;;;4349000;33;20215;-89
2022/10/10 07:20:48;;;;;;;31.85;19.65;;;;;;;;;;4348026;33;20303;-89
2022/10/10 07:23:16;;;;;;;28.92;18.70;;;;;;;;;;4347447;33;20222;-88
2022/10/10 07:25:43;;;;;;;28.27;19.50;;;;;;;;;;4346899;33;20223;-89
2022/10/10 07:28:10;;;;;;;25.23;18.25;;;;;;;;;;4347692;33;20215;-90
2022/10/10 07:30:40;;;;;;;39.13;19.58;;;;;;;;;;4347521;33;20321;-89
2022/10/10 07:33:06;;;;;;;41.30;19.33;;;;;;;;;;4346549;33;20352;-89
2022/10/10 07:35:33;;;;;;;27.37;18.37;;;;;;;;;;4347011;33;20235;-89
2022/10/10 07:38:02;;;;;;;36.38;19.60;;;;;;;;;;4347112;33;20252;-89
2022/10/10 07:40:29;;;;;;;37.13;22.30;;;;;;;;;;4346940;33;20234;-90
2022/10/10 07:42:56;;;;;;;30.65;20.35;;;;;;;;;;4348380;33;20223;-91
2022/10/10 07:45:23;;;;;;;26.63;20.27;;;;;;;;;;4349948;33;20284;-88
2022/10/10 07:48:00;;;;;;;31.12;20.88;;;;;;;;;;4352886;33;20223;-89
2022/10/10 07:50:30;;;;;;;33.57;20.40;;;;;;;;;;4338676;33;20265;-89
2022/10/10 07:52:57;;;;;;;45.87;20.23;;;;;;;;;;4349236;33;20339;-90
2022/10/10 07:55:25;;;;;;;30.63;21.47;;;;;;;;;;4349908;33;20253;-89
2022/10/10 07:57:52;;;;;;;27.10;20.90;;;;;;;;;;4350130;33;20501;-88
2022/10/10 08:00:19;;;;;;;28.50;21.93;;;;;;;;;;4349109;33;20254;-90
2022/10/10 08:02:46;;;;;;;25.77;20.48;;;;;;;;;;4349669;33;20600;-90
2022/10/10 08:05:13;;;;;;;26.53;20.43;;;;;;;;;;4349484;33;20254;-88
2022/10/10 08:07:39;;;;;;;36.30;22.10;;;;;;;;;;4349170;33;20228;-90
2022/10/10 08:10:08;;;;;;;28.63;20.17;;;;;;;;;;4348670;33;20235;-90
2022/10/10 08:12:37;;;;;;;28.27;21.60;;;;;;;;;;4349175;33;20260;-90
2022/10/10 08:15:05;;;;;;;37.83;21.87;;;;;;;;;;4348813;33;20245;-89
2022/10/10 08:17:32;;;;;;;30.50;21.17;;;;;;;;;;4349902;33;20207;-87
2022/10/10 08:19:58;;;;;;;29.08;21.75;;;;;;;;;;4349950;33;20231;-87
2022/10/10 08:22:25;;;;;;;32.80;20.95;;;;;;;;;;4349264;33;20241;-88
2022/10/10 08:24:52;;;;;;;31.60;20.48;;;;;;;;;;4349272;33;20252;-89
2022/10/10 08:27:19;;;;;;;24.23;20.70;;;;;;;;;;4348903;33;20266;-89
2022/10/10 08:29:48;;;;;;;29.12;20.77;;;;;;;;;;4349283;33;20354;-87
2022/10/10 08:32:15;;;;;;;31.60;19.58;;;;;;;;;;4349387;33;20222;-90
2022/10/10 08:34:42;;;;;;;25.58;19.98;;;;;;;;;;4348926;33;20235;-88
2022/10/10 08:37:09;;;;;;;33.40;21.25;;;;;;;;;;4348936;33;20677;-89
2022/10/10 08:39:35;;;;;;;41.33;21.27;;;;;;;;;;4348722;33;20274;-89
2022/10/10 08:42:03;;;;;;;25.30;20.27;;;;;;;;;;4349550;33;20285;-90
2022/10/10 08:44:37;;;;;;;37.13;19.85;;;;;;;;;;4349051;33;20248;-89
2022/10/10 08:47:10;;;;;;;39.85;19.25;;;;;;;;;;4348857;33;20214;-88
2022/10/10 08:49:41;;;;;;;24.75;20.05;;;;;;;;;;4349144;33;20268;-89
2022/10/10 08:52:15;;;;;;;32.22;19.37;;;;;;;;;;4348772;33;20296;-88
2022/10/10 08:54:43;;;;;;;33.08;18.87;;;;;;;;;;4349060;33;20222;-89
2022/10/10 08:57:22;;;;;;;31.48;20.90;;;;;;;;;;4349528;33;20501;-87
2022/10/10 08:59:49;;;;;;;33.53;21.98;;;;;;;;;;4350281;33;20234;-87
2022/10/10 09:02:28;;;;;;;36.40;19.60;;;;;;;;;;4349811;33;20215;-87
2022/10/10 09:04:56;;;;;;;34.65;20.85;;;;;;;;;;4350033;33;20226;-88
2022/10/10 09:07:33;;;;;;;34.10;19.60;;;;;;;;;;4350210;33;20229;-90
2022/10/10 09:10:11;;;;;;;28.00;19.60;;;;;;;;;;4349868;33;20611;-90
2022/10/10 09:12:46;;;;;;;28.75;20.92;;;;;;;;;;4350022;33;20253;-87
2022/10/10 09:15:16;;;;;;;23.48;18.27;;;;;;;;;;4348777;33;20675;-89
2022/10/10 09:17:49;;;;;;;28.20;18.83;;;;;;;;;;4348401;33;20240;-89
2022/10/10 09:20:33;;;;;;;30.20;20.37;;;;;;;;;;4348879;33;20249;-90
2022/10/10 09:23:04;;;;;;;27.17;19.05;;;;;;;;;;4349118;33;20229;-88
2022/10/10 09:25:34;;;;;;;23.33;18.67;;;;;;;;;;4349477;33;20234;-87
2022/10/10 09:28:06;;;;;;;32.72;19.48;;;;;;;;;;4356305;33;20203;-88
2022/10/10 09:30:37;;;;;;;26.45;19.35;;;;;;;;;;4357603;33;20226;-89
2022/10/10 09:33:10;;;;;;;31.87;19.60;;;;;;;;;;4356749;33;20681;-87
2022/10/10 09:35:39;;;;;;;26.92;18.27;;;;;;;;;;4352857;33;20227;-90
2022/10/10 09:38:25;;;;;;;42.97;20.50;;;;;;;;;;4351819;33;20210;-89
2022/10/10 09:40:57;;;;;;;27.85;17.58;;;;;;;;;;4349139;33;20231;-89
2022/10/10 09:43:30;;;;;;;40.08;19.52;;;;;;;;;;4349076;33;20293;-90
2022/10/10 09:45:57;;;;;;;31.70;19.92;;;;;;;;;;4348710;33;20223;-88
2022/10/10 09:48:29;;;;;;;26.70;17.80;;;;;;;;;;4348248;33;20547;-88
2022/10/10 09:50:56;;;;;;;28.80;19.37;;;;;;;;;;4348129;33;20596;-88
2022/10/10 09:53:23;;;;;;;36.60;19.42;;;;;;;;;;4347411;33;20219;-90
2022/10/10 09:55:52;;;;;;;26.10;18.40;;;;;;;;;;4348516;33;20304;-89
2022/10/10 09:58:26;;;;;;;28.48;18.50;;;;;;;;;;4348221;33;20301;-90
2022/10/10 10:00:53;;;;;;;34.05;16.75;;;;;;;;;;4348344;33;20253;-89
2022/10/10 10:03:22;;;;;;;23.75;16.23;;;;;;;;;;4348048;33;20281;-90
2022/10/10 10:05:57;;;;;;;25.20;17.62;;;;;;;;;;4347190;33;20313;-90
2022/10/10 10:08:27;;;;;;;33.95;18.48;;;;;;;;;;4347627;33;20232;-89
2022/10/10 10:10:57;;;;;;;22.70;18.12;;;;;;;;;;4347726;33;20227;-90
2022/10/10 10:13:27;;;;;;;25.73;17.27;;;;;;;;;;4347475;33;20215;-89
2022/10/10 10:16:00;;;;;;;25.25;17.08;;;;;;;;;;4347297;33;20286;-90
2022/10/10 10:18:29;;;;;;;38.53;18.00;;;;;;;;;;4347977;33;20211;-90
2022/10/10 10:21:15;;;;;;;29.05;20.42;;;;;;;;;;4347143;33;20219;-89
2022/10/10 10:23:49;;;;;;;27.13;17.87;;;;;;;;;;4347076;33;20548;-90
2022/10/10 10:26:18;;;;;;;26.75;19.65;;;;;;;;;;4347449;33;20230;-89
2022/10/10 10:28:46;;;;;;;31.33;18.73;;;;;;;;;;4347257;33;20211;-89
2022/10/10 10:31:21;;;;;;;29.55;16.95;;;;;;;;;;4348566;33;20506;-89
2022/10/10 10:34:00;;;;;;;21.60;17.83;;;;;;;;;;4348925;33;20261;-88
2022/10/10 10:36:41;;;;;;;26.02;19.60;;;;;;;;;;4347313;33;20261;-89
2022/10/10 10:39:21;;;;;;;19.95;16.62;;;;;;;;;;4347261;33;20273;-90
2022/10/10 10:41:56;;;;;;;21.75;16.83;;;;;;;;;;4346643;33;20616;-90
2022/10/10 10:44:33;;;;;;;26.27;16.48;;;;;;;;;;4346636;33;20549;-90
2022/10/10 10:47:10;;;;;;;21.37;16.02;;;;;;;;;;4347903;33;20325;-91
2022/10/10 10:49:48;;;;;;;22.77;18.50;;;;;;;;;;4346969;33;20353;-90
2022/10/10 10:52:38;;;;;;;22.35;15.95;;;;;;;;;;4347080;33;20226;-90
2022/10/10 10:55:27;;;;;;;23.83;16.62;;;;;;;;;;4346465;33;20285;-90
2022/10/10 10:58:23;;;;;;;25.52;17.55;;;;;;;;;;4346931;33;20275;-90
2022/10/10 11:00:56;;;;;;;26.52;18.15;;;;;;;;;;4347965;33;20322;-89
2022/10/10 11:03:36;;;;;;;23.73;17.83;;;;;;;;;;4347808;33;20258;-90
2022/10/10 11:06:16;;;;;;;25.08;17.85;;;;;;;;;;4348407;33;20698;-87
2022/10/10 11:08:57;;;;;;;19.83;15.30;;;;;;;;;;4349011;33;20281;-90
2022/10/10 11:11:38;;;;;;;18.30;14.23;;;;;;;;;;4348065;33;20223;-89
2022/10/10 11:14:21;;;;;;;23.60;16.60;;;;;;;;;;4347934;33;20238;-90
2022/10/10 11:16:52;;;;;;;29.50;16.27;;;;;;;;;;4347811;33;20657;-90
2022/10/10 11:19:26;;;;;;;21.27;15.93;;;;;;;;;;4350733;33;20219;-90
2022/10/10 11:21:58;;;;;;;19.10;14.95;;;;;;;;;;4349930;33;20595;-91
2022/10/10 11:24:35;;;;;;;15.80;13.70;;;;;;;;;;4349903;33;20234;-89
2022/10/10 11:27:07;;;;;;;33.67;15.60;;;;;;;;;;4350091;33;20230;-90
2022/10/10 11:29:39;;;;;;;25.10;14.82;;;;;;;;;;4350095;33;20588;-89
2022/10/10 11:32:12;;;;;;;19.08;16.02;;;;;;;;;;4351006;33;20225;-90
2022/10/10 11:34:43;;;;;;;23.67;13.62;;;;;;;;;;4350006;33;20552;-90
2022/10/10 11:37:16;;;;;;;27.02;14.85;;;;;;;;;;4350181;33;20319;-89
2022/10/10 11:39:51;;;;;;;23.40;13.80;;;;;;;;;;4350363;33;20277;-89
2022/10/10 11:42:20;;;;;;;17.45;15.18;;;;;;;;;;4350056;33;20235;-90
2022/10/10 11:44:52;;;;;;;22.90;15.65;;;;;;;;;;4349329;33;20301;-90
2022/10/10 11:47:31;;;;;;;19.77;15.45;;;;;;;;;;4349981;33;20214;-90
2022/10/10 11:50:03;;;;;;;25.77;14.73;;;;;;;;;;4349870;33;20268;-90
2022/10/10 11:52:37;;;;;;;25.08;14.77;;;;;;;;;;4349467;33;20359;-89
2022/10/10 11:55:13;;;;;;;21.30;13.75;;;;;;;;;;4349222;33;20245;-89
2022/10/10 11:57:44;;;;;;;15.10;13.52;;;;;;;;;;4349849;33;20463;-90
2022/10/10 12:00:15;;;;;;;26.15;14.30;;;;;;;;;;4350030;33;20289;-89
2022/10/10 12:02:43;;;;;;;19.73;15.07;;;;;;;;;;4349842;33;20647;-90
2022/10/10 12:05:20;;;;;;;20.55;14.93;;;;;;;;;;4349994;33;20352;-90
2022/10/10 12:08:04;;;;;;;19.35;14.57;;;;;;;;;;4349634;33;20276;-90
2022/10/10 12:10:37;;;;;;;22.80;14.27;;;;;;;;;;4349956;33;20322;-89
2022/10/10 12:13:18;;;;;;;21.85;14.60;;;;;;;;;;4349784;33;20277;-90
2022/10/10 12:15:45;;;;;;;18.98;14.95;;;;;;;;;;4349627;33;20606;-90
2022/10/10 12:18:24;;;;;;;20.10;15.65;;;;;;;;;;4349645;33;20253;-89
2022/10/10 12:21:04;;;;;;;23.08;12.80;;;;;;;;;;4343155;27;20555;-90
2022/10/10 12:23:32;;;;;;;16.73;13.88;;;;;;;;;;4320322;33;20215;-88
2022/10/10 12:26:00;;;;;;;20.52;15.07;;;;;;;;;;4320132;33;20290;-89
2022/10/10 12:28:33;;;;;;;27.87;15.80;;;;;;;;;;4319719;33;20605;-90
2022/10/10 12:31:30;;;;;;;23.75;14.18;;;;;;;;;;4319954;33;20253;-88
2022/10/10 12:34:33;;;;;;;18.08;14.50;;;;;;;;;;4320642;33;20275;-90
2022/10/10 12:37:19;;;;;;;27.27;15.07;;;;;;;;;;4316978;33;20251;-88
2022/10/10 12:40:19;;;;;;;19.33;15.20;;;;;;;;;;4320418;33;20222;-88
2022/10/10 12:43:23;;;;;;;23.00;15.48;;;;;;;;;;4319651;33;20658;-90
2022/10/10 12:46:18;;;;;;;27.52;16.05;;;;;;;;;;4319462;33;20593;-89
2022/10/10 12:48:46;;;;;;;21.62;15.05;;;;;;;;;;4319577;33;20592;-88
2022/10/10 12:51:21;;;;;;;20.12;14.32;;;;;;;;;;4319410;33;20248;-89
2022/10/10 12:53:53;;;;;;;22.10;14.70;;;;;;;;;;4319567;33;20631;-90
2022/10/10 12:56:33;;;;;;;26.17;15.27;;;;;;;;;;4320087;33;20219;-90
2022/10/10 12:59:01;;;;;;;21.42;15.50;;;;;;;;;;4319978;33;20624;-89
2022/10/10 13:01:32;;;;;;;28.52;14.63;;;;;;;;;;4319794;33;20212;-91
2022/10/10 13:03:59;;;;;;;20.45;15.18;;;;;;;;;;4319554;33;20207;-90
2022/10/10 13:06:33;;;;;;;23.65;16.30;;;;;;;;;;4319343;33;20596;-88
2022/10/10 13:09:02;;;;;;;19.08;13.95;;;;;;;;;;4319770;33;20207;-91
2022/10/10 13:11:29;;;;;;;22.83;15.57;;;;;;;;;;4319425;33;20287;-90
2022/10/10 13:13:57;;;;;;;21.95;15.55;;;;;;;;;;4319557;33;20207;-89
2022/10/10 13:16:27;;;;;;;24.15;14.15;;;;;;;;;;4319615;33;20211;-89
2022/10/10 13:18:55;;;;;;;20.23;16.17;;;;;;;;;;4319293;33;20229;-89
2022/10/10 13:21:27;;;;;;;21.62;15.52;;;;;;;;;;4318711;33;20224;-89
2022/10/10 13:23:56;;;;;;;22.58;17.00;;;;;;;;;;4318712;33;20328;-89
2022/10/10 13:26:28;;;;;;;19.42;17.35;;;;;;;;;;4319136;33;20215;-90
2022/10/10 13:28:57;;;;;;;28.60;18.23;;;;;;;;;;4319378;33;20216;-91
2022/10/10 13:31:26;;;;;;;26.70;17.00;;;;;;;;;;4319236;33;20223;-89
2022/10/10 13:33:57;;;;;;;26.45;17.75;;;;;;;;;;4319691;33;20274;-91
2022/10/10 13:36:28;;;;;;;32.97;17.08;;;;;;;;;;4319169;33;20241;-90
2022/10/10 13:38:55;;;;;;;24.45;16.60;;;;;;;;;;4319192;33;20196;-89
2022/10/10 13:41:24;;;;;;;21.25;17.12;;;;;;;;;;4318474;33;20231;-89
2022/10/10 13:43:51;;;;;;;22.25;15.27;;;;;;;;;;4318869;33;20227;-89
2022/10/10 13:46:21;;;;;;;16.10;13.80;;;;;;;;;;4318168;33;20219;-90
2022/10/10 13:48:50;;;;;;;30.08;15.07;;;;;;;;;;4319151;33;20208;-90
2022/10/10 13:51:18;;;;;;;33.63;15.93;;;;;;;;;;4318450;33;20228;-90
2022/10/10 13:53:50;;;;;;;25.98;16.92;;;;;;;;;;4319000;33;20651;-88
2022/10/10 13:56:22;;;;;;;29.70;17.15;;;;;;;;;;4318660;33;20278;-90
2022/10/10 13:58:51;;;;;;;19.60;15.25;;;;;;;;;;4318893;33;20211;-89
2022/10/10 14:01:33;;;;;;;19.83;14.87;;;;;;;;;;4318166;33;20227;-91
2022/10/10 14:04:17;;;;;;;25.48;15.95;;;;;;;;;;4318972;33;20274;-90
2022/10/10 14:06:59;;;;;;;18.92;15.95;;;;;;;;;;4318793;33;20231;-89
2022/10/10 14:09:30;;;;;;;24.83;15.65;;;;;;;;;;4318680;33;20633;-90
2022/10/10 14:11:59;;;;;;;19.70;14.95;;;;;;;;;;4318537;33;20237;-90
2022/10/10 14:14:33;;;;;;;21.77;16.15;;;;;;;;;;4318672;33;20678;-90
2022/10/10 14:17:01;;;;;;;22.58;15.43;;;;;;;;;;4318635;33;20309;-90
2022/10/10 14:19:30;;;;;;;21.50;15.38;;;;;;;;;;4318624;33;20247;-91
2022/10/10 14:21:57;;;;;;;16.25;14.55;;;;;;;;;;4318987;33;20640;-90
2022/10/10 14:24:24;;;;;;;22.40;16.10;;;;;;;;;;4319233;33;20264;-90
2022/10/10 14:26:51;;;;;;;21.12;15.52;;;;;;;;;;4318629;33;20548;-89
2022/10/10 14:29:19;;;;;;;28.42;17.05;;;;;;;;;;4318352;33;20235;-90
2022/10/10 14:31:46;;;;;;;22.92;16.02;;;;;;;;;;4318623;33;20215;-91
2022/10/10 14:34:14;;;;;;;29.12;16.08;;;;;;;;;;4318865;33;20271;-91
2022/10/10 14:36:46;;;;;;;21.05;16.62;;;;;;;;;;4318228;33;20241;-90